Time;durP1;ratioP1;P1;durP2;ratioP2;P2;SDS_P1;SDS_P2;PMS_P1;PMS_P2;Temp;Humidity;BMP_temperature;BMP_pressure;BME280_temperature;BME280_humidity;BME280_pressure;Samples;Min_cycle;Max_cycle;Signal;HPM_P1;HPM_P2
2022/12/14 00:02:27;;;;;;;30.92;11.30;;;6.10;70.00;;;;;;6246967;28;20052;-77
2022/12/14 00:05:28;;;;;;;36.78;12.80;;;6.10;70.00;;;;;;6246579;28;20077;-77
2022/12/14 00:08:29;;;;;;;30.00;12.23;;;6.10;70.00;;;;;;6252382;28;20037;-77
2022/12/14 00:11:32;;;;;;;29.23;10.68;;;6.00;69.90;;;;;;6222952;28;20161;-76
2022/12/14 00:14:33;;;;;;;30.40;10.70;;;6.00;70.00;;;;;;6221436;28;20037;-77
2022/12/14 00:17:36;;;;;;;22.88;10.43;;;6.00;70.30;;;;;;6242268;28;20459;-78
2022/12/14 00:20:36;;;;;;;27.58;11.27;;;6.00;70.50;;;;;;6240225;28;20041;-77
2022/12/14 00:23:41;;;;;;;38.20;13.18;;;6.00;70.40;;;;;;6223810;28;20045;-77
2022/12/14 00:26:42;;;;;;;20.90;9.48;;;6.00;70.30;;;;;;6211846;28;20160;-77
2022/12/14 00:29:43;;;;;;;33.75;11.20;;;6.00;70.30;;;;;;6224898;28;20042;-77
2022/12/14 00:32:45;;;;;;;24.23;11.10;;;6.00;70.30;;;;;;6236948;28;20065;-77
2022/12/14 00:35:46;;;;;;;29.40;11.77;;;6.00;70.40;;;;;;6227303;28;20045;-77
2022/12/14 00:38:47;;;;;;;32.88;12.10;;;6.00;70.70;;;;;;6229057;28;20462;-76
2022/12/14 00:41:48;;;;;;;26.50;10.90;;;6.00;70.40;;;;;;6246271;28;20441;-76
2022/12/14 00:44:49;;;;;;;24.40;10.57;;;6.00;70.50;;;;;;6247588;28;20029;-77
2022/12/14 00:47:50;;;;;;;28.77;11.23;;;6.10;70.60;;;;;;6247224;28;20363;-77
2022/12/14 00:50:52;;;;;;;27.50;11.07;;;6.10;70.50;;;;;;6256230;28;20044;-77
2022/12/14 00:53:54;;;;;;;26.80;10.82;;;6.10;70.40;;;;;;6257418;28;20519;-77
2022/12/14 00:56:54;;;;;;;41.47;10.77;;;6.20;70.40;;;;;;6246169;28;20029;-77
2022/12/14 00:59:56;;;;;;;25.50;11.10;;;6.10;70.20;;;;;;6242573;28;20044;-78
2022/12/14 01:02:57;;;;;;;27.02;11.20;;;6.10;70.20;;;;;;6252286;28;20041;-77
2022/12/14 01:05:58;;;;;;;36.55;11.75;;;6.10;70.10;;;;;;6204221;28;20045;-77
2022/12/14 01:08:59;;;;;;;28.10;10.60;;;6.10;70.00;;;;;;6239952;28;20030;-76
2022/12/14 01:12:00;;;;;;;27.25;12.50;;;6.10;70.30;;;;;;6247745;28;20366;-77
2022/12/14 01:15:01;;;;;;;27.42;12.10;;;6.10;70.20;;;;;;6260037;28;20604;-77
2022/12/14 01:18:04;;;;;;;24.30;11.82;;;6.10;70.30;;;;;;6228381;28;20042;-77
2022/12/14 01:21:20;;;;;;;34.33;13.05;;;6.10;70.50;;;;;;6219829;28;20066;-78
2022/12/14 01:24:21;;;;;;;32.33;11.35;;;6.20;70.40;;;;;;6205559;28;20116;-77
2022/12/14 01:27:23;;;;;;;30.13;12.38;;;6.20;70.40;;;;;;6244345;28;20134;-77
2022/12/14 01:30:24;;;;;;;32.58;11.98;;;6.20;70.40;;;;;;6243391;28;20347;-77
2022/12/14 01:33:25;;;;;;;29.85;10.98;;;6.20;70.40;;;;;;6244283;28;20038;-79
2022/12/14 01:36:28;;;;;;;29.13;10.45;;;6.30;70.30;;;;;;6245188;28;20033;-76
2022/12/14 01:39:30;;;;;;;28.15;12.70;;;6.30;70.40;;;;;;6244842;28;20044;-76
2022/12/14 01:42:34;;;;;;;27.00;11.68;;;6.40;70.30;;;;;;6227301;28;20398;-77
2022/12/14 01:45:35;;;;;;;26.40;11.05;;;6.40;70.10;;;;;;6236442;28;20195;-77
2022/12/14 01:48:36;;;;;;;24.02;11.02;;;6.40;69.90;;;;;;6220428;28;20471;-77
2022/12/14 01:51:39;;;;;;;25.17;11.63;;;6.40;69.90;;;;;;6252654;28;20038;-77
2022/12/14 01:54:51;;;;;;;26.50;10.45;;;6.40;70.00;;;;;;6244556;28;20038;-76
2022/12/14 01:58:06;;;;;;;23.15;11.52;;;6.40;70.20;;;;;;6237924;28;20117;-76
2022/12/14 02:01:10;;;;;;;26.23;10.98;;;6.40;70.20;;;;;;6236977;28;20025;-77
2022/12/14 02:04:13;;;;;;;25.77;10.15;;;6.40;70.20;;;;;;6244406;28;20040;-77
2022/12/14 02:07:16;;;;;;;33.00;11.35;;;6.40;70.20;;;;;;6242073;28;20034;-77
2022/12/14 02:10:17;;;;;;;31.33;10.43;;;6.50;70.30;;;;;;6234989;28;20044;-77
2022/12/14 02:13:25;;;;;;;23.10;11.38;;;6.50;70.20;;;;;;6247141;28;20451;-78
2022/12/14 02:16:26;;;;;;;27.27;11.25;;;6.60;70.30;;;;;;6228613;28;20079;-77
2022/12/14 02:19:27;;;;;;;31.20;10.00;;;6.60;70.10;;;;;;6231881;28;20440;-77
2022/12/14 02:23:10;;;;;;;29.38;11.48;;;6.60;70.00;;;;;;6235881;28;20470;-77
2022/12/14 02:26:36;;;;;;;23.45;9.68;;;6.60;70.00;;;;;;6179415;28;20049;-77
2022/12/14 02:30:01;;;;;;;28.40;10.70;;;6.50;70.00;;;;;;6161075;28;20542;-77
2022/12/14 02:33:07;;;;;;;31.42;12.32;;;6.50;70.30;;;;;;6185137;28;20045;-76
2022/12/14 02:36:33;;;;;;;29.63;11.35;;;6.50;70.40;;;;;;6187556;28;20034;-77
2022/12/14 02:40:03;;;;;;;29.33;11.48;;;6.40;70.30;;;;;;6181957;28;20447;-77
2022/12/14 02:43:10;;;;;;;36.97;12.50;;;6.40;70.50;;;;;;6170912;28;20077;-76
2022/12/14 02:46:40;;;;;;;25.73;10.65;;;6.40;70.80;;;;;;6190474;28;20138;-77
2022/12/14 02:49:52;;;;;;;25.23;10.27;;;6.40;70.90;;;;;;6169654;28;20551;-77
2022/12/14 02:53:26;;;;;;;25.63;10.93;;;6.50;70.90;;;;;;6189328;28;20495;-77
2022/12/14 02:56:38;;;;;;;21.00;10.38;;;6.50;71.00;;;;;;6158058;28;20035;-77
2022/12/14 02:59:40;;;;;;;28.30;12.02;;;6.50;71.00;;;;;;6168405;28;20387;-77
2022/12/14 03:02:44;;;;;;;30.52;11.63;;;6.50;71.00;;;;;;6222801;28;20104;-77
2022/12/14 03:05:58;;;;;;;19.75;9.50;;;6.60;71.00;;;;;;6257897;28;20055;-78
2022/12/14 03:09:07;;;;;;;28.77;12.15;;;6.60;70.90;;;;;;6214503;28;20042;-78
2022/12/14 03:12:10;;;;;;;29.65;11.60;;;6.60;71.00;;;;;;6215769;28;20119;-77
2022/12/14 03:15:15;;;;;;;27.65;11.73;;;6.70;71.10;;;;;;6197558;28;20076;-78
2022/12/14 03:18:19;;;;;;;19.95;10.07;;;6.80;71.10;;;;;;6222839;28;20050;-77
2022/12/14 03:21:26;;;;;;;28.40;11.70;;;6.70;70.70;;;;;;6228780;28;20045;-78
2022/12/14 03:24:33;;;;;;;25.60;10.70;;;6.80;70.80;;;;;;6214987;28;20030;-77
2022/12/14 03:27:42;;;;;;;25.97;10.97;;;6.70;70.60;;;;;;6215184;28;20470;-77
2022/12/14 03:30:49;;;;;;;26.08;10.05;;;6.70;70.70;;;;;;6200691;28;20034;-77
2022/12/14 03:33:54;;;;;;;21.58;8.93;;;6.70;70.90;;;;;;6249479;28;20053;-77
2022/12/14 03:37:36;;;;;;;28.13;10.95;;;6.70;70.90;;;;;;6242591;28;20377;-77
2022/12/14 03:40:51;;;;;;;21.25;9.27;;;6.80;70.80;;;;;;6248173;28;20374;-77
2022/12/14 03:44:04;;;;;;;25.23;9.68;;;6.80;70.90;;;;;;6241492;28;20510;-77
2022/12/14 03:47:33;;;;;;;18.40;9.45;;;6.80;70.70;;;;;;6237064;28;20045;-77
2022/12/14 03:51:17;;;;;;;17.13;7.97;;;6.80;70.70;;;;;;6230109;28;20038;-77
2022/12/14 03:54:55;;;;;;;19.05;9.18;;;6.80;70.80;;;;;;6197858;28;20049;-77
2022/12/14 03:58:26;;;;;;;18.65;8.57;;;6.80;70.80;;;;;;6171145;28;20042;-78
2022/12/14 04:01:49;;;;;;;21.80;9.80;;;6.80;70.80;;;;;;6172014;28;20078;-77
2022/12/14 04:04:49;;;;;;;23.50;10.02;;;6.80;70.90;;;;;;6159542;28;20073;-79
2022/12/14 04:08:05;;;;;;;25.48;9.68;;;6.90;70.90;;;;;;6176255;28;20498;-79
2022/12/14 04:21:30;;;;;;;22.48;9.27;;;6.90;70.90;;;;;;6183152;28;20049;-77
2022/12/14 04:31:53;;;;;;;22.55;9.90;;;6.90;70.40;;;;;;6192528;28;20026;-77
2022/12/14 04:35:04;;;;;;;41.25;11.90;;;6.80;70.50;;;;;;6201280;28;20037;-77
2022/12/14 04:38:16;;;;;;;29.08;11.40;;;6.80;71.30;;;;;;6257708;28;20061;-77
2022/12/14 04:41:22;;;;;;;22.25;10.85;;;6.80;70.40;;;;;;6242513;28;20432;-76
2022/12/14 04:44:32;;;;;;;29.35;10.98;;;6.70;70.40;;;;;;6243201;28;20030;-78
2022/12/14 04:47:39;;;;;;;34.58;11.02;;;6.80;70.60;;;;;;6240967;28;20561;-78
2022/12/14 04:50:48;;;;;;;20.73;9.57;;;6.80;70.70;;;;;;6253558;28;20137;-76
2022/12/14 04:53:54;;;;;;;31.08;10.38;;;6.70;70.70;;;;;;6243453;28;20118;-76
2022/12/14 04:57:03;;;;;;;21.55;10.75;;;6.80;70.90;;;;;;6246403;28;20318;-77
2022/12/14 05:00:05;;;;;;;25.02;11.75;;;6.80;70.90;;;;;;6244370;28;20528;-78
2022/12/14 05:03:08;;;;;;;22.83;10.45;;;6.80;70.90;;;;;;6242133;28;20462;-78
2022/12/14 05:06:31;;;;;;;21.25;9.75;;;6.80;70.80;;;;;;6215474;28;20104;-77
2022/12/14 05:09:50;;;;;;;20.63;9.95;;;6.80;70.70;;;;;;6215360;28;20108;-77
2022/12/14 05:13:01;;;;;;;25.03;9.77;;;6.70;70.70;;;;;;6223999;28;20036;-77
2022/12/14 05:16:02;;;;;;;23.25;10.07;;;6.60;70.90;;;;;;6241351;28;20418;-77
2022/12/14 05:19:07;;;;;;;22.95;9.45;;;6.60;71.00;;;;;;6240598;28;20140;-77
2022/12/14 05:22:08;;;;;;;28.35;11.98;;;6.60;71.20;;;;;;6259048;28;20374;-77
2022/12/14 05:25:09;;;;;;;26.30;9.73;;;6.60;71.30;;;;;;6259275;28;20378;-76
2022/12/14 05:28:11;;;;;;;25.80;10.00;;;6.60;71.40;;;;;;6243810;28;20037;-77
2022/12/14 05:31:12;;;;;;;30.20;11.68;;;6.60;71.40;;;;;;6234452;28;20057;-77
2022/12/14 05:34:13;;;;;;;17.17;9.23;;;6.60;72.30;;;;;;6243415;28;20041;-76
2022/12/14 05:37:14;;;;;;;22.13;9.05;;;6.60;71.50;;;;;;6243567;28;20422;-77
2022/12/14 05:40:16;;;;;;;25.80;11.55;;;6.70;71.50;;;;;;6258797;28;20037;-77
2022/12/14 05:43:16;;;;;;;37.38;11.20;;;6.60;71.50;;;;;;6225319;28;20037;-77
2022/12/14 05:46:17;;;;;;;20.27;10.13;;;6.60;71.60;;;;;;6249676;28;20052;-78
2022/12/14 05:49:18;;;;;;;23.08;10.65;;;6.60;71.50;;;;;;6243584;28;20052;-77
2022/12/14 05:52:19;;;;;;;20.60;9.95;;;6.70;71.70;;;;;;6244128;28;20033;-78
2022/12/14 05:55:20;;;;;;;21.13;10.02;;;6.70;71.70;;;;;;6253078;28;20037;-79
2022/12/14 05:58:21;;;;;;;24.65;10.43;;;6.70;71.60;;;;;;6242304;28;20057;-78
2022/12/14 06:01:22;;;;;;;24.15;10.48;;;6.70;71.70;;;;;;6237597;28;20037;-78
2022/12/14 06:04:24;;;;;;;19.02;9.48;;;6.80;71.60;;;;;;6243005;28;20117;-78
2022/12/14 06:07:25;;;;;;;18.38;8.55;;;6.90;71.60;;;;;;6242138;28;20053;-78
2022/12/14 06:10:26;;;;;;;25.42;10.73;;;6.90;71.40;;;;;;6256970;28;20047;-78
2022/12/14 06:13:28;;;;;;;23.17;10.07;;;6.90;71.30;;;;;;6239206;28;20034;-79
2022/12/14 06:16:30;;;;;;;21.85;8.98;;;6.90;71.30;;;;;;6252180;28;20061;-79
2022/12/14 06:19:32;;;;;;;25.58;11.43;;;7.00;71.20;;;;;;6230963;28;20030;-78
2022/12/14 06:22:33;;;;;;;52.47;12.07;;;7.00;71.20;;;;;;6251978;28;20045;-78
2022/12/14 06:25:34;;;;;;;30.00;11.85;;;7.00;71.20;;;;;;6240987;28;20079;-78
2022/12/14 06:28:35;;;;;;;27.10;10.18;;;7.00;71.10;;;;;;6242449;28;20049;-77
2022/12/14 06:31:37;;;;;;;27.58;10.38;;;7.00;71.10;;;;;;6234983;28;20439;-79
2022/12/14 06:34:38;;;;;;;26.92;10.52;;;7.00;70.80;;;;;;6225767;28;20426;-78
2022/12/14 06:37:39;;;;;;;21.15;10.43;;;7.00;70.80;;;;;;6216724;28;20042;-79
2022/12/14 06:40:40;;;;;;;27.05;11.23;;;7.00;70.80;;;;;;6216747;28;20029;-79
2022/12/14 06:43:42;;;;;;;22.52;9.35;;;7.00;70.80;;;;;;6237059;28;20037;-76
2022/12/14 06:46:43;;;;;;;31.33;12.23;;;7.00;70.80;;;;;;6252199;28;20156;-78
2022/12/14 06:49:44;;;;;;;24.48;10.57;;;6.90;70.80;;;;;;6239465;28;20072;-78
2022/12/14 06:52:48;;;;;;;30.48;12.15;;;6.90;71.00;;;;;;6230964;28;20041;-78
2022/12/14 06:55:49;;;;;;;22.10;9.52;;;6.90;71.00;;;;;;6201961;28;20045;-78
2022/12/14 06:58:51;;;;;;;25.10;10.70;;;6.80;71.10;;;;;;6215118;28;20042;-77
2022/12/14 07:01:52;;;;;;;21.70;9.60;;;6.90;71.30;;;;;;6237222;28;20053;-78
2022/12/14 07:04:53;;;;;;;24.83;10.30;;;6.90;71.40;;;;;;6238975;28;20047;-78
2022/12/14 07:07:54;;;;;;;20.58;9.05;;;6.90;71.40;;;;;;6218740;28;20048;-77
2022/12/14 07:10:55;;;;;;;28.60;10.10;;;6.90;71.40;;;;;;6239420;28;20079;-78
2022/12/14 07:13:59;;;;;;;30.63;9.23;;;6.90;71.40;;;;;;6239908;28;20061;-78
2022/12/14 07:17:00;;;;;;;18.00;8.25;;;7.00;71.50;;;;;;6255662;28;20443;-78
2022/12/14 07:20:02;;;;;;;28.33;10.10;;;7.00;71.40;;;;;;6239812;28;20034;-78
2022/12/14 07:23:03;;;;;;;25.02;9.43;;;7.10;71.50;;;;;;6233938;28;20037;-78
2022/12/14 07:26:16;;;;;;;23.25;9.55;;;7.10;71.50;;;;;;6218674;28;20447;-78
2022/12/14 07:29:17;;;;;;;33.10;8.95;;;7.20;71.50;;;;;;6238274;28;20041;-77
2022/12/14 07:32:18;;;;;;;21.20;9.45;;;7.30;71.50;;;;;;6246383;28;20040;-78
2022/12/14 07:35:19;;;;;;;17.05;7.50;;;7.30;71.30;;;;;;6235517;28;20034;-78
2022/12/14 07:38:20;;;;;;;26.77;11.23;;;7.30;71.20;;;;;;6245265;28;20573;-77
2022/12/14 07:41:26;;;;;;;23.95;10.23;;;7.40;71.00;;;;;;6246525;28;20371;-77
2022/12/14 07:44:27;;;;;;;20.25;8.93;;;7.40;71.20;;;;;;6231047;28;20033;-78
2022/12/14 07:47:29;;;;;;;21.35;9.73;;;7.40;70.80;;;;;;6263462;28;20452;-79
2022/12/14 07:50:30;;;;;;;26.55;11.65;;;7.50;70.70;;;;;;6245664;28;20034;-78
2022/12/14 07:53:32;;;;;;;33.20;9.98;;;7.50;70.50;;;;;;6240601;28;20379;-76
2022/12/14 07:56:37;;;;;;;28.58;10.70;;;7.50;70.40;;;;;;6244717;28;20033;-78
2022/12/14 07:59:38;;;;;;;34.97;11.95;;;7.40;70.30;;;;;;6243990;28;20091;-77
2022/12/14 08:02:39;;;;;;;32.53;11.48;;;7.40;70.10;;;;;;6244758;28;20046;-77
2022/12/14 08:05:40;;;;;;;25.50;10.65;;;7.40;70.20;;;;;;6227572;28;20056;-78
2022/12/14 08:08:41;;;;;;;28.83;13.07;;;7.40;70.40;;;;;;6245508;28;20037;-77
2022/12/14 08:11:42;;;;;;;33.88;13.05;;;7.40;70.60;;;;;;6246248;28;20029;-76
2022/12/14 08:14:43;;;;;;;37.20;14.63;;;7.40;70.50;;;;;;6243199;28;20098;-77
2022/12/14 08:17:44;;;;;;;24.83;11.15;;;7.50;70.40;;;;;;6257695;28;20447;-77
2022/12/14 08:20:51;;;;;;;25.38;12.02;;;7.50;70.20;;;;;;6243102;28;20025;-77
2022/12/14 08:23:53;;;;;;;26.63;11.70;;;7.50;70.20;;;;;;6240051;28;20455;-77
2022/12/14 08:26:54;;;;;;;36.05;10.80;;;7.50;70.40;;;;;;6245703;28;20045;-76
2022/12/14 08:29:55;;;;;;;27.88;11.98;;;7.50;70.30;;;;;;6244231;28;20415;-78
2022/12/14 08:32:56;;;;;;;29.17;10.52;;;7.60;70.50;;;;;;6247152;28;20116;-77
2022/12/14 08:36:05;;;;;;;31.73;12.18;;;7.60;70.50;;;;;;6244536;28;20056;-78
2022/12/14 08:39:09;;;;;;;31.25;11.55;;;7.70;70.50;;;;;;6245495;28;20380;-78
2022/12/14 08:42:10;;;;;;;28.45;11.15;;;7.70;70.60;;;;;;6259517;28;20037;-79
2022/12/14 08:45:14;;;;;;;21.52;11.10;;;7.70;70.60;;;;;;6242360;28;20674;-78
2022/12/14 08:48:15;;;;;;;27.95;11.18;;;7.80;70.70;;;;;;6220214;28;20096;-79
2022/12/14 08:51:17;;;;;;;31.35;11.02;;;7.90;70.70;;;;;;6218314;28;20112;-77
2022/12/14 08:54:18;;;;;;;25.88;10.50;;;7.90;70.70;;;;;;6240742;28;20095;-77
2022/12/14 08:57:19;;;;;;;36.45;10.57;;;8.00;70.70;;;;;;6243403;28;20030;-77
2022/12/14 09:00:20;;;;;;;31.23;11.05;;;8.10;70.50;;;;;;6236897;28;20041;-77
2022/12/14 09:03:24;;;;;;;35.00;12.75;;;8.10;71.30;;;;;;6195723;28;20041;-78
2022/12/14 09:06:28;;;;;;;24.48;10.15;;;8.10;70.40;;;;;;6238919;28;20482;-77
2022/12/14 09:09:29;;;;;;;25.35;11.27;;;8.20;70.60;;;;;;6248094;28;20044;-77
2022/12/14 09:12:29;;;;;;;23.35;9.98;;;8.20;70.70;;;;;;6251931;28;20061;-78
2022/12/14 09:15:30;;;;;;;27.38;9.18;;;8.30;70.70;;;;;;6244623;28;20048;-78
2022/12/14 09:18:33;;;;;;;35.17;10.27;;;8.30;70.50;;;;;;6210156;28;20044;-77
2022/12/14 09:21:34;;;;;;;35.15;13.20;;;8.20;70.30;;;;;;6227428;28;20041;-78
2022/12/14 09:24:35;;;;;;;30.50;10.65;;;8.10;70.20;;;;;;6244591;28;20136;-78
2022/12/14 09:27:36;;;;;;;21.90;9.88;;;8.10;70.60;;;;;;6237215;28;20446;-78
2022/12/14 09:30:36;;;;;;;31.17;11.60;;;8.00;70.90;;;;;;6242770;28;20042;-80
2022/12/14 09:33:38;;;;;;;26.70;11.00;;;7.90;71.20;;;;;;6244018;28;20557;-79
2022/12/14 09:36:39;;;;;;;21.65;10.23;;;8.00;71.40;;;;;;6243365;28;20458;-77
2022/12/14 09:39:40;;;;;;;18.05;8.90;;;7.90;71.60;;;;;;6242655;28;20030;-77
2022/12/14 09:42:52;;;;;;;22.88;9.00;;;8.00;71.70;;;;;;6243558;28;20390;-78
2022/12/14 09:46:05;;;;;;;25.08;10.73;;;8.10;71.60;;;;;;6257024;28;20107;-78
2022/12/14 09:49:35;;;;;;;42.60;15.38;;;8.10;71.50;;;;;;6239067;28;20236;-78
2022/12/14 09:52:36;;;;;;;;;;;8.20;71.40;;;;;;6224037;28;20448;-78
2022/12/14 09:55:41;;;;;;;24.58;9.63;;;8.10;71.30;;;;;;6251980;28;19927;-77
2022/12/14 09:58:52;;;;;;;23.10;10.93;;;8.10;71.10;;;;;;6241172;28;20513;-78
2022/12/14 10:02:16;;;;;;;37.08;10.60;;;8.00;71.20;;;;;;6240301;28;20064;-78
2022/12/14 10:05:30;;;;;;;45.42;16.45;;;8.00;71.50;;;;;;6217437;28;20062;-78
2022/12/14 10:08:42;;;;;;;22.15;10.57;;;7.90;71.80;;;;;;6231875;28;20053;-78
2022/12/14 10:11:55;;;;;;;18.23;8.77;;;7.90;72.10;;;;;;6234013;28;20041;-79
2022/12/14 10:15:02;;;;;;;21.52;10.52;;;8.00;72.30;;;;;;6258068;28;20042;-78
2022/12/14 10:18:18;;;;;;;24.40;9.32;;;8.10;72.50;;;;;;6240360;28;20116;-77
2022/12/14 10:21:22;;;;;;;40.17;15.35;;;8.00;72.30;;;;;;6196988;28;20034;-78
2022/12/14 10:24:40;;;;;;;22.50;10.10;;;8.10;72.20;;;;;;6236840;28;20036;-77
2022/12/14 10:27:49;;;;;;;25.10;11.68;;;8.10;72.10;;;;;;6236757;28;20038;-79
2022/12/14 10:30:57;;;;;;;31.65;10.15;;;8.10;72.00;;;;;;6235690;28;20498;-78
2022/12/14 10:34:11;;;;;;;26.70;10.77;;;8.10;71.80;;;;;;6256179;28;20052;-79
2022/12/14 10:37:33;;;;;;;26.52;10.60;;;8.10;71.80;;;;;;6241900;28;20129;-77
2022/12/14 10:40:38;;;;;;;25.58;11.88;;;8.20;72.10;;;;;;6219582;28;20091;-78
2022/12/14 10:43:58;;;;;;;33.90;12.15;;;8.30;71.90;;;;;;6211283;28;20041;-78
2022/12/14 10:47:07;;;;;;;32.83;11.95;;;8.40;72.10;;;;;;6257391;28;20057;-79
2022/12/14 10:50:15;;;;;;;22.15;10.75;;;8.50;71.90;;;;;;6242691;28;20049;-78
2022/12/14 10:53:22;;;;;;;26.25;11.68;;;8.70;71.70;;;;;;6241496;28;20143;-78
2022/12/14 10:56:32;;;;;;;25.27;11.20;;;8.80;71.50;;;;;;6241973;28;20419;-77
2022/12/14 10:59:36;;;;;;;23.20;11.48;;;8.90;71.30;;;;;;6233461;28;20034;-78
2022/12/14 11:02:41;;;;;;;24.60;10.60;;;9.10;71.10;;;;;;6246992;28;20033;-78
2022/12/14 11:05:54;;;;;;;21.88;10.85;;;9.30;70.90;;;;;;6254416;28;20033;-79
2022/12/14 11:08:56;;;;;;;36.95;14.20;;;9.40;70.60;;;;;;6242523;28;20459;-79
2022/12/14 11:12:21;;;;;;;26.45;12.02;;;9.40;70.20;;;;;;6245868;28;20030;-78
2022/12/14 11:15:30;;;;;;;25.80;11.32;;;9.40;70.00;;;;;;6223355;28;20049;-79
2022/12/14 11:18:32;;;;;;;29.45;11.70;;;9.50;70.10;;;;;;6203412;28;20037;-78
2022/12/14 11:21:36;;;;;;;26.17;11.38;;;9.50;70.20;;;;;;6204076;28;20112;-80
2022/12/14 11:24:47;;;;;;;33.13;13.38;;;9.50;70.20;;;;;;6203181;28;20130;-78
2022/12/14 11:27:48;;;;;;;29.13;12.57;;;9.60;70.10;;;;;;6219811;28;20468;-79
2022/12/14 11:31:19;;;;;;;25.70;12.60;;;9.70;70.10;;;;;;6220696;28;20049;-79
2022/12/14 11:34:40;;;;;;;26.08;11.60;;;9.70;69.80;;;;;;6206915;28;20042;-79
2022/12/14 11:37:41;;;;;;;25.67;11.68;;;9.80;69.80;;;;;;6199576;28;20026;-78
2022/12/14 11:40:43;;;;;;;25.20;12.10;;;9.80;69.80;;;;;;6204408;28;20038;-77
2022/12/14 11:43:44;;;;;;;34.10;13.65;;;9.80;69.60;;;;;;6203329;28;20132;-78
2022/12/14 11:46:57;;;;;;;29.52;12.30;;;9.80;69.70;;;;;;6220279;28;20128;-79
2022/12/14 11:49:58;;;;;;;30.00;12.48;;;9.80;69.80;;;;;;6202588;28;20430;-78
2022/12/14 11:53:05;;;;;;;27.58;12.15;;;9.80;69.70;;;;;;6240521;28;20144;-78
2022/12/14 11:56:12;;;;;;;38.53;15.73;;;9.70;69.70;;;;;;6233641;28;20041;-78
2022/12/14 11:59:16;;;;;;;33.50;14.55;;;9.70;69.70;;;;;;6235007;28;20030;-78
2022/12/14 12:02:29;;;;;;;38.97;16.67;;;9.60;69.80;;;;;;6226986;28;20045;-78
2022/12/14 12:05:33;;;;;;;33.75;15.95;;;9.50;69.90;;;;;;6218386;28;20486;-79
2022/12/14 12:08:39;;;;;;;31.67;14.00;;;9.50;70.00;;;;;;6249860;28;20115;-79
2022/12/14 12:11:44;;;;;;;30.58;14.85;;;9.40;70.30;;;;;;6218676;28;20461;-78
2022/12/14 12:14:46;;;;;;;28.67;13.57;;;9.40;70.50;;;;;;6220067;28;20049;-78
2022/12/14 12:17:52;;;;;;;31.85;14.02;;;9.40;70.70;;;;;;6209192;28;20133;-79
2022/12/14 12:21:07;;;;;;;30.05;14.35;;;9.50;70.70;;;;;;6242420;28;20036;-78
2022/12/14 12:24:23;;;;;;;32.00;14.40;;;9.50;70.80;;;;;;6195717;28;20046;-78
2022/12/14 12:27:25;;;;;;;42.20;15.73;;;9.60;70.90;;;;;;6219174;28;20417;-79
2022/12/14 12:30:31;;;;;;;31.13;13.32;;;9.50;70.90;;;;;;6235708;28;20459;-79
2022/12/14 12:33:32;;;;;;;30.08;14.02;;;9.70;71.00;;;;;;6239157;28;20196;-79
2022/12/14 12:36:32;;;;;;;35.92;12.43;;;9.70;71.00;;;;;;6243259;28;20133;-78
2022/12/14 12:39:34;;;;;;;32.05;14.73;;;9.80;71.00;;;;;;6240922;28;20029;-78
2022/12/14 12:42:44;;;;;;;36.90;14.82;;;9.90;70.80;;;;;;6242479;28;20520;-79
2022/12/14 12:45:50;;;;;;;44.88;15.90;;;10.00;70.80;;;;;;6226231;28;20041;-79
2022/12/14 12:49:04;;;;;;;39.75;17.58;;;10.00;70.70;;;;;;6243259;28;20545;-79
2022/12/14 12:52:15;;;;;;;43.97;17.48;;;10.00;70.50;;;;;;6256679;28;20363;-79
2022/12/14 12:55:19;;;;;;;43.58;15.77;;;10.00;70.50;;;;;;6260548;28;20042;-78
2022/12/14 12:58:32;;;;;;;39.58;15.05;;;10.00;70.60;;;;;;6236492;28;20038;-79
2022/12/14 13:01:43;;;;;;;43.55;15.43;;;10.00;70.70;;;;;;6243447;28;20042;-79
2022/12/14 13:04:47;;;;;;;36.33;15.65;;;10.00;70.60;;;;;;6219217;28;20041;-79
2022/12/14 13:07:54;;;;;;;36.33;15.73;;;10.00;70.40;;;;;;6210001;28;20534;-79
2022/12/14 13:11:00;;;;;;;35.55;15.05;;;10.00;70.40;;;;;;6233387;28;20387;-80
2022/12/14 13:14:35;;;;;;;43.42;19.05;;;9.90;70.40;;;;;;6251192;28;20045;-78
2022/12/14 13:17:42;;;;;;;46.92;16.50;;;9.90;70.60;;;;;;6225457;28;20041;-79
2022/12/14 13:20:43;;;;;;;31.55;13.43;;;9.90;70.70;;;;;;6239506;28;20684;-79
2022/12/14 13:23:44;;;;;;;42.80;16.40;;;9.90;70.50;;;;;;6230911;28;20334;-79
2022/12/14 13:27:00;;;;;;;44.05;18.70;;;10.00;70.60;;;;;;6231027;28;20102;-79
2022/12/14 13:30:01;;;;;;;33.63;13.55;;;10.10;70.40;;;;;;6255519;28;20034;-79
2022/12/14 13:33:32;;;;;;;41.03;15.73;;;10.20;70.10;;;;;;6238446;28;20036;-78
2022/12/14 13:36:53;;;;;;;27.75;13.00;;;10.20;70.00;;;;;;6224924;28;20058;-78
2022/12/14 13:40:21;;;;;;;30.40;14.95;;;10.20;70.20;;;;;;6218539;28;20504;-79
2022/12/14 13:43:41;;;;;;;32.67;14.75;;;10.20;70.50;;;;;;6238519;28;20065;-79
2022/12/14 13:46:42;;;;;;;31.27;14.18;;;10.20;70.60;;;;;;6240035;28;20092;-78
2022/12/14 13:49:56;;;;;;;33.97;12.80;;;10.30;70.40;;;;;;6237786;28;20397;-79
2022/12/14 13:53:02;;;;;;;28.52;13.32;;;10.50;70.50;;;;;;6239772;28;20037;-79
2022/12/14 13:56:04;;;;;;;28.20;12.65;;;10.60;70.40;;;;;;6241434;28;20324;-79
2022/12/14 13:59:31;;;;;;;29.17;13.00;;;10.80;70.00;;;;;;6240881;28;20414;-79
2022/12/14 14:02:32;;;;;;;30.83;13.38;;;10.90;69.70;;;;;;6240575;28;20129;-79
2022/12/14 14:05:33;;;;;;;30.77;13.85;;;11.00;69.50;;;;;;6236452;28;20036;-79
2022/12/14 14:08:36;;;;;;;31.27;13.88;;;11.10;69.40;;;;;;6238983;28;20033;-79
2022/12/14 14:11:37;;;;;;;24.77;12.95;;;11.20;69.40;;;;;;6240084;28;20039;-79
2022/12/14 14:15:00;;;;;;;36.47;16.60;;;11.20;69.20;;;;;;6238838;28;20253;-78
2022/12/14 14:18:24;;;;;;;35.28;16.17;;;11.20;69.00;;;;;;6251012;28;20037;-80
2022/12/14 14:21:38;;;;;;;41.53;14.65;;;11.20;69.10;;;;;;6243390;28;20029;-80
2022/12/14 14:25:30;;;;;;;35.78;16.70;;;11.20;69.10;;;;;;6256815;28;20045;-80
2022/12/14 14:28:31;;;;;;;36.10;16.17;;;11.20;69.20;;;;;;6174189;28;20030;-78
2022/12/14 14:31:47;;;;;;;30.65;15.10;;;11.20;69.00;;;;;;6191828;28;20041;-80
2022/12/14 14:34:50;;;;;;;43.03;16.92;;;11.20;69.00;;;;;;6192661;28;20117;-80
2022/12/14 14:38:21;;;;;;;36.78;15.75;;;11.20;69.00;;;;;;6175925;28;20515;-79
2022/12/14 14:41:26;;;;;;;33.67;14.50;;;11.10;69.00;;;;;;6170818;28;20522;-78
2022/12/14 14:44:39;;;;;;;28.90;13.13;;;11.10;69.00;;;;;;6174816;28;20034;-80
2022/12/14 14:47:41;;;;;;;36.60;14.00;;;11.10;69.10;;;;;;6171355;28;20034;-79
2022/12/14 14:50:42;;;;;;;32.38;16.42;;;11.00;69.20;;;;;;6150922;28;20498;-79
2022/12/14 14:53:44;;;;;;;36.33;14.20;;;11.00;69.20;;;;;;6186771;28;20043;-78
2022/12/14 14:56:49;;;;;;;33.47;15.18;;;11.00;69.20;;;;;;6180603;28;20145;-78
2022/12/14 14:59:59;;;;;;;37.85;16.33;;;10.90;69.30;;;;;;6170139;28;20065;-79
2022/12/14 15:03:00;;;;;;;33.13;15.00;;;10.90;69.40;;;;;;6188687;28;20124;-80
2022/12/14 15:06:02;;;;;;;31.67;14.20;;;10.90;69.30;;;;;;6244207;28;20037;-79
2022/12/14 15:09:04;;;;;;;28.95;14.45;;;10.90;69.40;;;;;;6236823;28;20053;-78
2022/12/14 15:12:40;;;;;;;35.55;14.80;;;10.80;69.20;;;;;;6253789;28;20080;-79
2022/12/14 15:15:46;;;;;;;39.72;14.38;;;10.80;69.40;;;;;;6210897;28;20125;-79
2022/12/14 15:18:47;;;;;;;31.00;16.23;;;10.70;69.30;;;;;;6232119;28;20044;-79
2022/12/14 15:22:01;;;;;;;42.97;16.73;;;10.60;69.20;;;;;;6251529;28;20045;-78
2022/12/14 15:25:02;;;;;;;40.78;17.20;;;10.60;69.40;;;;;;6197168;28;20026;-79
2022/12/14 15:28:09;;;;;;;47.05;19.35;;;10.50;69.20;;;;;;6214083;28;20046;-78
2022/12/14 15:31:10;;;;;;;51.58;20.17;;;10.40;69.30;;;;;;6237980;28;20357;-78
2022/12/14 15:34:16;;;;;;;56.15;21.52;;;10.30;69.50;;;;;;6238702;28;20131;-79
2022/12/14 15:37:39;;;;;;;56.90;19.75;;;10.30;69.60;;;;;;6239274;28;20041;-79
2022/12/14 15:40:40;;;;;;;53.88;20.42;;;10.20;69.70;;;;;;6237212;28;20030;-79
2022/12/14 15:43:46;;;;;;;63.90;22.33;;;10.10;69.80;;;;;;6255287;28;20172;-79
2022/12/14 15:46:54;;;;;;;55.40;23.45;;;10.10;69.90;;;;;;6240450;28;20447;-78
2022/12/14 15:50:24;;;;;;;47.30;19.05;;;10.10;70.00;;;;;;6234813;28;20062;-78
2022/12/14 15:54:01;;;;;;;45.90;19.52;;;10.10;70.20;;;;;;6222651;28;20123;-78
2022/12/14 15:57:02;;;;;;;51.55;19.05;;;10.00;70.00;;;;;;6144535;28;20035;-77
2022/12/14 16:00:04;;;;;;;44.88;18.70;;;9.90;70.10;;;;;;6128413;28;20091;-78
2022/12/14 16:03:30;;;;;;;62.97;21.85;;;9.90;70.20;;;;;;6143275;28;20039;-78
2022/12/14 16:06:37;;;;;;;43.90;18.30;;;9.80;70.60;;;;;;6156616;28;20058;-80
2022/12/14 16:09:48;;;;;;;49.50;18.90;;;9.80;70.70;;;;;;6160951;28;20039;-79
2022/12/14 16:12:54;;;;;;;50.83;19.15;;;9.70;70.80;;;;;;6151389;28;20464;-79
2022/12/14 16:15:57;;;;;;;58.40;20.52;;;9.70;70.90;;;;;;6171642;28;20383;-79
2022/12/14 16:18:58;;;;;;;48.40;20.02;;;9.60;70.90;;;;;;6155100;28;20031;-79